Time;durP1;ratioP1;P1;durP2;ratioP2;P2;SDS_P1;SDS_P2;PMS_P1;PMS_P2;Temp;Humidity;BMP_temperature;BMP_pressure;BME280_temperature;BME280_humidity;BME280_pressure;Samples;Min_cycle;Max_cycle;Signal;HPM_P1;HPM_P2
2023/06/18 10:45:25;;;;;;;7.78;4.70;;;29.00;52.30;;;;;;5110532;27;20831;-64
2023/06/18 10:48:18;;;;;;;8.88;4.80;;;28.70;52.80;;;;;;5109699;28;20023;-61
2023/06/18 10:51:14;;;;;;;7.70;5.18;;;28.80;52.30;;;;;;5125945;28;20073;-66
2023/06/18 10:53:39;;;;;;;17.10;5.55;;;29.00;51.80;;;;;;5129439;28;20091;-63
2023/06/18 10:56:05;;;;;;;13.77;5.80;;;29.20;52.20;;;;;;5128995;28;20020;-65
2023/06/18 10:58:38;;;;;;;7.93;5.22;;;29.40;51.30;;;;;;5131191;28;20015;-66
2023/06/18 11:01:04;;;;;;;7.25;5.35;;;29.40;50.00;;;;;;5130911;28;20535;-63
2023/06/18 11:03:37;;;;;;;10.75;5.22;;;29.50;50.10;;;;;;5130042;28;20079;-67
2023/06/18 11:06:04;;;;;;;6.63;4.60;;;29.70;50.00;;;;;;5119865;28;20016;-66
2023/06/18 11:08:32;;;;;;;7.80;5.28;;;29.70;48.90;;;;;;5110101;28;20027;-65
2023/06/18 11:11:07;;;;;;;6.97;4.13;;;29.90;48.80;;;;;;5109733;28;20027;-66
2023/06/18 11:13:53;;;;;;;6.45;4.18;;;30.00;47.50;;;;;;5108861;28;20422;-67
2023/06/18 11:16:19;;;;;;;6.15;3.67;;;30.10;47.50;;;;;;5109467;28;20412;-64
2023/06/18 11:18:45;;;;;;;7.07;3.80;;;30.20;46.90;;;;;;5117581;28;20015;-66
2023/06/18 11:21:19;;;;;;;7.72;4.70;;;30.20;44.70;;;;;;5110106;28;20555;-65
2023/06/18 11:23:46;;;;;;;6.68;3.47;;;30.20;45.70;;;;;;5109677;28;20035;-65
2023/06/18 11:26:19;;;;;;;10.48;6.35;;;30.20;46.70;;;;;;5111381;28;20019;-66
2023/06/18 11:28:46;;;;;;;8.50;5.18;;;30.10;46.50;;;;;;5109940;28;20028;-65
2023/06/18 11:31:11;;;;;;;6.78;4.38;;;30.10;46.30;;;;;;5109502;28;20024;-67
2023/06/18 11:33:38;;;;;;;7.15;4.05;;;30.00;46.20;;;;;;5110039;28;20031;-66
2023/06/18 11:36:12;;;;;;;6.10;4.07;;;29.80;46.00;;;;;;5108519;28;20111;-67
2023/06/18 11:38:39;;;;;;;8.20;3.95;;;29.70;46.00;;;;;;5107718;28;20442;-63
2023/06/18 11:41:05;;;;;;;6.55;3.85;;;29.70;45.90;;;;;;5110641;28;20099;-67
2023/06/18 11:43:45;;;;;;;7.97;4.75;;;29.70;46.20;;;;;;5109448;28;20551;-66
2023/06/18 11:46:33;;;;;;;5.88;4.05;;;29.70;45.30;;;;;;5109591;28;20035;-68
2023/06/18 11:48:59;;;;;;;5.95;3.90;;;29.80;45.70;;;;;;5109045;28;20373;-61
2023/06/18 11:51:26;;;;;;;5.70;3.92;;;29.80;45.20;;;;;;5109903;28;20027;-61
2023/06/18 11:53:55;;;;;;;7.07;4.00;;;29.80;44.60;;;;;;5128612;28;20023;-61
2023/06/18 11:56:26;;;;;;;8.18;4.47;;;29.80;44.90;;;;;;5118504;28;20024;-61
2023/06/18 11:58:53;;;;;;;8.75;4.60;;;29.70;44.60;;;;;;5113927;28;20022;-61
2023/06/18 12:01:19;;;;;;;12.65;7.00;;;29.80;45.30;;;;;;5095657;28;20372;-65
2023/06/18 12:03:45;;;;;;;8.68;5.55;;;29.70;46.10;;;;;;5077428;28;20032;-62
2023/06/18 12:06:15;;;;;;;19.08;11.57;;;29.70;45.70;;;;;;5094668;28;20099;-61
2023/06/18 12:08:45;;;;;;;5.60;4.22;;;29.50;46.30;;;;;;5097099;28;20024;-65
2023/06/18 12:11:45;;;;;;;9.52;4.32;;;29.40;45.50;;;;;;5086860;28;20031;-61
2023/06/18 12:14:20;;;;;;;7.40;4.38;;;29.40;46.30;;;;;;5040708;28;20055;-65
2023/06/18 12:16:50;;;;;;;5.90;3.88;;;29.40;46.60;;;;;;5092463;28;20013;-62
2023/06/18 12:19:18;;;;;;;6.90;4.43;;;29.30;47.10;;;;;;5094095;28;20456;-62
2023/06/18 12:21:44;;;;;;;5.80;4.43;;;29.40;47.30;;;;;;5092252;28;20603;-67
2023/06/18 12:24:10;;;;;;;6.55;4.13;;;29.40;47.60;;;;;;5094417;28;21298;-65
2023/06/18 12:26:36;;;;;;;7.78;4.15;;;29.40;47.80;;;;;;5094550;28;20047;-63
2023/06/18 12:29:02;;;;;;;5.82;4.30;;;29.40;48.00;;;;;;5095027;28;20032;-68
2023/06/18 12:31:27;;;;;;;7.72;4.72;;;29.40;48.80;;;;;;5095032;28;20023;-62
2023/06/18 12:33:53;;;;;;;6.00;4.32;;;29.40;48.80;;;;;;5094377;28;20036;-68
2023/06/18 12:36:26;;;;;;;6.57;3.80;;;29.40;48.40;;;;;;5095054;28;20024;-65
2023/06/18 12:38:52;;;;;;;6.25;3.97;;;29.40;48.10;;;;;;5107782;28;20193;-61
2023/06/18 12:41:22;;;;;;;5.65;4.20;;;29.40;47.70;;;;;;5114885;28;20106;-60
2023/06/18 12:43:48;;;;;;;5.53;3.95;;;29.30;47.90;;;;;;5099366;28;20047;-62
2023/06/18 12:46:24;;;;;;;5.75;3.67;;;29.40;48.40;;;;;;5094743;28;20036;-59
2023/06/18 12:48:51;;;;;;;7.18;4.00;;;29.50;48.70;;;;;;5094349;28;20020;-65
2023/06/18 12:51:17;;;;;;;5.97;4.00;;;29.50;48.70;;;;;;5094749;28;20051;-63
2023/06/18 12:53:43;;;;;;;7.00;4.15;;;29.50;47.70;;;;;;5094845;28;20028;-65
2023/06/18 12:56:25;;;;;;;8.70;4.43;;;29.50;47.90;;;;;;5093985;28;20497;-60
2023/06/18 12:58:51;;;;;;;7.78;4.63;;;29.60;48.20;;;;;;5094202;28;20028;-63
2023/06/18 13:01:17;;;;;;;10.82;5.35;;;29.50;47.80;;;;;;5111841;28;20055;-64
2023/06/18 13:03:43;;;;;;;9.00;4.47;;;29.50;47.90;;;;;;5114652;28;20075;-64
2023/06/18 13:06:09;;;;;;;5.60;3.92;;;29.50;48.20;;;;;;5098040;28;20081;-68
2023/06/18 13:08:36;;;;;;;7.65;4.15;;;29.50;48.30;;;;;;5091639;28;20135;-66
2023/06/18 13:11:02;;;;;;;6.18;4.07;;;29.40;48.50;;;;;;5092711;28;20484;-65
2023/06/18 13:13:28;;;;;;;5.32;3.90;;;29.40;49.80;;;;;;5093582;28;20384;-66
2023/06/18 13:15:54;;;;;;;5.90;3.70;;;29.50;48.90;;;;;;5092988;28;20024;-66
2023/06/18 13:18:20;;;;;;;7.03;4.13;;;29.50;48.00;;;;;;5093812;28;20073;-63
2023/06/18 13:20:48;;;;;;;10.98;4.22;;;29.50;48.00;;;;;;5093971;28;20028;-60
2023/06/18 13:23:14;;;;;;;7.28;3.80;;;29.50;47.80;;;;;;5093211;28;20024;-62
2023/06/18 13:25:40;;;;;;;7.57;4.15;;;29.50;47.80;;;;;;5093821;28;20068;-61
2023/06/18 13:28:06;;;;;;;7.50;4.20;;;29.40;47.50;;;;;;5093859;28;20032;-62
2023/06/18 13:30:31;;;;;;;5.85;3.83;;;29.40;48.00;;;;;;5093166;28;20027;-64
2023/06/18 13:32:57;;;;;;;6.05;4.10;;;29.40;47.70;;;;;;5093838;28;20484;-62
2023/06/18 13:35:24;;;;;;;5.47;3.55;;;29.30;46.90;;;;;;5093806;28;20469;-62
2023/06/18 13:37:50;;;;;;;4.97;3.17;;;29.20;47.50;;;;;;5093460;28;20024;-63
2023/06/18 13:40:16;;;;;;;8.10;4.32;;;29.20;47.10;;;;;;5093908;28;20024;-65
2023/06/18 13:42:42;;;;;;;9.70;3.83;;;29.20;47.30;;;;;;5112032;28;20081;-60
2023/06/18 13:45:09;;;;;;;7.00;3.80;;;29.30;47.90;;;;;;5113211;28;20048;-64
2023/06/18 13:47:34;;;;;;;6.90;4.13;;;29.20;46.90;;;;;;5113919;28;20088;-64
2023/06/18 13:50:00;;;;;;;6.97;4.70;;;29.20;46.80;;;;;;5113926;28;20443;-61
2023/06/18 13:52:26;;;;;;;6.05;3.90;;;29.20;47.00;;;;;;5113363;28;20027;-62
2023/06/18 13:54:51;;;;;;;5.80;3.95;;;29.10;46.50;;;;;;5103985;28;20066;-66
2023/06/18 13:57:18;;;;;;;6.70;3.90;;;29.10;46.90;;;;;;5093150;28;20107;-62
2023/06/18 13:59:45;;;;;;;6.78;4.55;;;29.10;46.10;;;;;;5092468;28;20017;-59
2023/06/18 14:02:12;;;;;;;5.28;3.42;;;29.10;46.50;;;;;;5093108;28;20436;-61
2023/06/18 14:04:38;;;;;;;7.70;4.20;;;29.00;46.90;;;;;;5092349;28;20054;-61
2023/06/18 14:07:04;;;;;;;6.97;4.13;;;29.00;46.90;;;;;;5091785;28;20111;-62
2023/06/18 14:09:30;;;;;;;5.93;3.95;;;28.90;47.30;;;;;;5093085;28;20036;-64
2023/06/18 14:11:56;;;;;;;6.85;3.70;;;28.90;47.10;;;;;;5092415;28;20369;-63
2023/06/18 14:14:22;;;;;;;6.78;3.90;;;28.80;46.20;;;;;;5094148;28;20016;-66
2023/06/18 14:16:48;;;;;;;7.60;4.03;;;28.80;45.70;;;;;;5092915;28;20389;-68
2023/06/18 14:19:16;;;;;;;5.80;3.85;;;28.70;45.20;;;;;;5092308;28;20043;-63
2023/06/18 14:21:42;;;;;;;5.07;3.58;;;28.60;46.00;;;;;;5092843;28;20047;-61
2023/06/18 14:24:08;;;;;;;5.35;3.78;;;28.40;47.00;;;;;;5092968;28;20477;-68
2023/06/18 14:26:34;;;;;;;8.40;4.07;;;28.30;47.90;;;;;;5092255;28;20078;-63
2023/06/18 14:29:00;;;;;;;6.85;4.40;;;28.20;49.10;;;;;;5092438;28;20050;-67
2023/06/18 14:31:26;;;;;;;6.10;3.97;;;28.10;49.80;;;;;;5102344;28;20024;-65
2023/06/18 14:33:52;;;;;;;6.88;4.10;;;28.00;50.50;;;;;;5112057;28;20163;-66
2023/06/18 14:36:18;;;;;;;5.50;3.75;;;27.90;50.80;;;;;;5113146;28;20032;-67
2023/06/18 14:38:44;;;;;;;8.05;4.03;;;27.90;50.60;;;;;;5113129;28;20472;-64
2023/06/18 14:41:09;;;;;;;6.13;4.00;;;27.90;49.80;;;;;;5107224;28;20039;-67
2023/06/18 14:43:35;;;;;;;7.03;4.40;;;27.80;50.20;;;;;;5092589;28;20037;-64
2023/06/18 14:46:01;;;;;;;9.02;3.80;;;27.60;50.70;;;;;;5096586;28;20024;-70
2023/06/18 14:48:26;;;;;;;6.50;4.53;;;27.40;53.50;;;;;;5092319;28;20024;-69
2023/06/18 14:50:52;;;;;;;6.15;4.38;;;27.30;56.00;;;;;;5093142;28;20039;-66
2023/06/18 14:53:17;;;;;;;7.00;4.28;;;27.10;57.50;;;;;;5093667;28;20349;-66
2023/06/18 14:55:44;;;;;;;9.68;4.72;;;27.10;58.10;;;;;;5093856;28;20116;-63
2023/06/18 14:58:09;;;;;;;8.85;5.43;;;27.00;57.80;;;;;;5092568;28;20070;-61
2023/06/18 15:00:36;;;;;;;10.32;6.55;;;27.00;59.70;;;;;;5092841;28;20115;-61
2023/06/18 15:03:01;;;;;;;7.65;4.90;;;27.00;60.60;;;;;;5092305;28;20020;-63
2023/06/18 15:05:27;;;;;;;8.45;5.13;;;27.10;61.10;;;;;;5092773;28;20115;-62
2023/06/18 15:07:52;;;;;;;9.18;5.30;;;27.10;60.70;;;;;;5093273;28;20477;-67
2023/06/18 15:10:18;;;;;;;7.07;5.15;;;27.00;61.00;;;;;;5108514;28;20495;-62
2023/06/18 15:12:46;;;;;;;7.97;5.13;;;26.90;62.30;;;;;;5106416;28;20111;-64
2023/06/18 15:15:13;;;;;;;7.50;4.82;;;26.90;64.30;;;;;;5094665;28;20016;-64
2023/06/18 15:17:38;;;;;;;7.07;4.65;;;26.80;62.80;;;;;;5092406;28;20472;-67
2023/06/18 15:20:05;;;;;;;6.78;4.72;;;26.70;62.10;;;;;;5092579;28;20107;-63
2023/06/18 15:22:30;;;;;;;5.75;4.60;;;26.70;62.90;;;;;;5092496;28;20020;-66
2023/06/18 15:24:58;;;;;;;7.78;4.90;;;26.60;63.40;;;;;;5093810;28;20043;-64
2023/06/18 15:27:24;;;;;;;11.02;4.72;;;26.40;63.20;;;;;;5104225;28;20419;-62
2023/06/18 15:29:51;;;;;;;7.70;5.05;;;26.20;63.30;;;;;;5089757;28;20023;-61
2023/06/18 15:32:17;;;;;;;7.53;4.90;;;26.10;64.00;;;;;;5086910;28;20480;-63
2023/06/18 15:34:44;;;;;;;7.43;5.28;;;26.00;62.90;;;;;;5094012;28;20058;-61
2023/06/18 15:37:09;;;;;;;8.77;6.05;;;25.90;62.90;;;;;;5094378;28;20047;-64
2023/06/18 15:39:35;;;;;;;8.07;5.57;;;25.90;62.00;;;;;;5111010;28;20032;-62
2023/06/18 15:42:01;;;;;;;7.15;4.95;;;25.90;61.30;;;;;;5114135;28;20024;-61
2023/06/18 15:44:26;;;;;;;9.13;5.47;;;25.90;61.00;;;;;;5100004;28;20055;-63
2023/06/18 15:46:52;;;;;;;6.72;4.80;;;25.80;60.40;;;;;;5094746;28;20099;-65
2023/06/18 15:49:17;;;;;;;8.43;5.15;;;25.80;60.30;;;;;;5099152;28;20028;-65
2023/06/18 15:51:43;;;;;;;7.03;4.90;;;25.80;60.60;;;;;;5092351;28;20020;-62
2023/06/18 15:54:10;;;;;;;7.30;5.07;;;25.80;61.00;;;;;;5094944;28;20495;-61
2023/06/18 15:56:36;;;;;;;7.90;5.40;;;25.80;61.10;;;;;;5095251;28;20016;-62
2023/06/18 15:59:02;;;;;;;9.18;5.90;;;25.70;61.60;;;;;;5094477;28;20020;-64
2023/06/18 16:01:28;;;;;;;9.50;6.55;;;25.70;62.10;;;;;;5101477;28;20017;-61
2023/06/18 16:03:54;;;;;;;9.25;6.43;;;25.70;62.80;;;;;;5094560;28;20226;-62
2023/06/18 16:06:20;;;;;;;10.13;6.07;;;25.60;63.30;;;;;;5093533;28;20477;-62
2023/06/18 16:08:46;;;;;;;8.20;6.00;;;25.60;63.60;;;;;;5094057;28;20028;-66
2023/06/18 16:11:11;;;;;;;9.90;6.30;;;25.60;63.70;;;;;;5094039;28;20008;-67
2023/06/18 16:13:37;;;;;;;10.05;6.45;;;25.60;64.00;;;;;;5097927;28;20504;-66
2023/06/18 16:16:03;;;;;;;7.32;5.47;;;25.50;63.90;;;;;;5116057;28;20453;-67
2023/06/18 16:18:28;;;;;;;7.95;6.00;;;25.50;63.80;;;;;;5114526;28;20133;-66
2023/06/18 16:20:54;;;;;;;10.43;6.35;;;25.50;63.90;;;;;;5113449;28;20051;-67
2023/06/18 16:23:20;;;;;;;11.80;7.43;;;25.50;64.20;;;;;;5111625;28;20016;-66
2023/06/18 16:25:46;;;;;;;12.55;8.27;;;25.50;64.30;;;;;;5094241;28;20032;-64
2023/06/18 16:28:11;;;;;;;10.48;6.30;;;25.50;65.10;;;;;;5094546;28;20103;-62
2023/06/18 16:30:37;;;;;;;10.27;7.75;;;25.60;65.00;;;;;;5093937;28;20031;-63
2023/06/18 16:33:02;;;;;;;9.90;6.90;;;25.60;64.70;;;;;;5090967;28;20062;-64
2023/06/18 16:35:28;;;;;;;10.68;6.00;;;25.60;64.80;;;;;;5094590;28;20438;-64
2023/06/18 16:37:54;;;;;;;8.20;5.72;;;25.60;64.70;;;;;;5097463;28;20028;-61
2023/06/18 16:40:21;;;;;;;9.38;6.00;;;25.60;64.70;;;;;;5101759;28;20026;-61
2023/06/18 16:42:46;;;;;;;11.45;6.55;;;25.50;65.00;;;;;;5094945;28;20080;-64
2023/06/18 16:45:12;;;;;;;8.95;6.18;;;25.60;65.10;;;;;;5092942;28;20044;-63
2023/06/18 16:47:38;;;;;;;9.05;5.97;;;25.60;65.30;;;;;;5092211;28;20093;-63
2023/06/18 16:50:05;;;;;;;10.43;6.90;;;25.60;65.30;;;;;;5092928;28;20879;-64
2023/06/18 16:52:30;;;;;;;10.23;7.35;;;25.50;65.30;;;;;;5092069;28;20023;-63
2023/06/18 16:54:56;;;;;;;8.20;6.30;;;25.60;65.70;;;;;;5093464;28;20380;-63
2023/06/18 16:57:22;;;;;;;10.02;6.55;;;25.60;65.80;;;;;;5094699;28;20013;-63
2023/06/18 16:59:47;;;;;;;9.55;5.90;;;25.60;65.30;;;;;;5094454;28;20028;-64
2023/06/18 17:02:13;;;;;;;9.50;6.45;;;25.60;65.20;;;;;;5093285;28;20028;-62
2023/06/18 17:04:38;;;;;;;9.82;6.43;;;25.60;65.50;;;;;;5093108;28;20131;-64
2023/06/18 17:07:05;;;;;;;11.20;6.82;;;25.60;65.40;;;;;;5095049;28;20369;-63
2023/06/18 17:09:34;;;;;;;9.32;6.45;;;25.60;65.70;;;;;;5098700;28;20027;-66
2023/06/18 17:12:00;;;;;;;9.90;6.90;;;25.50;65.50;;;;;;5093196;28;20020;-63
2023/06/18 17:14:27;;;;;;;9.23;6.18;;;25.40;65.60;;;;;;5103812;28;20043;-63
2023/06/18 17:16:53;;;;;;;9.10;6.20;;;25.40;65.30;;;;;;5093588;28;20354;-63
2023/06/18 17:19:19;;;;;;;10.00;6.28;;;25.40;64.90;;;;;;5093959;28;20020;-62
2023/06/18 17:21:45;;;;;;;8.77;6.38;;;25.40;65.20;;;;;;5089699;28;20031;-62
2023/06/18 17:24:10;;;;;;;9.25;6.63;;;25.40;64.80;;;;;;5093321;28;20050;-62
2023/06/18 17:26:36;;;;;;;8.88;6.28;;;25.40;64.50;;;;;;5091788;28;20024;-63
2023/06/18 17:29:02;;;;;;;12.70;7.10;;;25.30;64.60;;;;;;5093563;28;20111;-66
2023/06/18 17:31:27;;;;;;;9.45;6.78;;;25.30;64.90;;;;;;5089033;28;20380;-66
2023/06/18 17:33:54;;;;;;;10.68;6.60;;;25.30;65.00;;;;;;5084241;28;20027;-65
2023/06/18 17:36:21;;;;;;;9.45;6.40;;;25.30;64.70;;;;;;5090957;28;20035;-62
2023/06/18 17:38:50;;;;;;;9.40;6.80;;;25.30;64.30;;;;;;5092817;28;20020;-61
2023/06/18 17:41:18;;;;;;;10.32;6.60;;;25.30;64.40;;;;;;5091716;28;20059;-66
2023/06/18 17:43:44;;;;;;;7.72;5.93;;;25.20;64.10;;;;;;5090942;28;20050;-65
2023/06/18 17:46:15;;;;;;;8.98;5.97;;;25.20;64.40;;;;;;5092718;28;20037;-63
2023/06/18 17:48:41;;;;;;;;;;;25.20;64.60;;;;;;5101293;28;20053;-66
2023/06/18 17:51:07;;;;;;;9.63;6.13;;;25.10;64.60;;;;;;5111108;28;20116;-61
2023/06/18 17:53:32;;;;;;;8.90;6.13;;;25.10;64.70;;;;;;5112494;28;20535;-61
2023/06/18 17:55:58;;;;;;;9.23;6.15;;;25.00;64.90;;;;;;5104308;28;20358;-62
2023/06/18 17:58:24;;;;;;;9.45;6.57;;;25.00;65.00;;;;;;5093022;28;20034;-64
2023/06/18 18:00:52;;;;;;;10.93;6.97;;;24.90;65.00;;;;;;5086957;28;20040;-62
2023/06/18 18:03:19;;;;;;;9.18;5.90;;;24.90;64.90;;;;;;5092140;28;20022;-61
2023/06/18 18:05:44;;;;;;;10.63;6.90;;;24.90;64.90;;;;;;5092669;28;20038;-63
2023/06/18 18:08:10;;;;;;;7.57;6.00;;;24.90;65.00;;;;;;5092510;28;20108;-62
2023/06/18 18:10:37;;;;;;;8.85;5.93;;;24.90;65.00;;;;;;5094235;28;20031;-63
2023/06/18 18:13:05;;;;;;;9.05;6.03;;;24.90;64.90;;;;;;5097054;28;20027;-64
2023/06/18 18:15:34;;;;;;;8.25;6.00;;;24.90;64.80;;;;;;5101347;28;20031;-61
2023/06/18 18:18:00;;;;;;;7.43;5.65;;;25.00;65.00;;;;;;5091408;28;20083;-62
2023/06/18 18:20:26;;;;;;;9.73;6.80;;;25.00;65.10;;;;;;5092672;28;20079;-62
2023/06/18 18:22:52;;;;;;;9.60;6.13;;;25.00;65.30;;;;;;5091789;28;20028;-62
2023/06/18 18:25:17;;;;;;;9.38;5.88;;;25.00;65.40;;;;;;5091398;28;20080;-62
2023/06/18 18:27:43;;;;;;;10.23;6.40;;;24.90;65.40;;;;;;5093208;28;20024;-61
2023/06/18 18:30:10;;;;;;;10.82;6.25;;;24.90;65.60;;;;;;5102877;28;20034;-61
2023/06/18 18:32:35;;;;;;;11.43;6.45;;;24.90;65.60;;;;;;5094585;28;20024;-61
2023/06/18 18:35:01;;;;;;;8.90;6.43;;;25.00;65.80;;;;;;5111190;28;20032;-63
2023/06/18 18:37:27;;;;;;;8.52;6.05;;;25.00;66.00;;;;;;5111917;28;20051;-63
2023/06/18 18:39:52;;;;;;;9.18;5.90;;;25.00;66.30;;;;;;5110994;28;20050;-67
2023/06/18 18:42:18;;;;;;;8.77;6.03;;;25.00;67.10;;;;;;5108844;28;20058;-64
2023/06/18 18:44:47;;;;;;;9.65;6.07;;;25.00;66.90;;;;;;5093793;28;20044;-61
2023/06/18 18:47:13;;;;;;;8.65;6.13;;;25.00;66.50;;;;;;5091831;28;20020;-65
2023/06/18 18:49:39;;;;;;;8.10;6.10;;;25.00;67.10;;;;;;5103942;28;20040;-62
2023/06/18 18:52:05;;;;;;;8.65;6.32;;;24.90;68.00;;;;;;5089817;28;20103;-66
2023/06/18 18:54:31;;;;;;;8.18;6.13;;;24.90;68.00;;;;;;5089898;28;20554;-63
2023/06/18 18:56:57;;;;;;;9.23;6.10;;;24.90;67.00;;;;;;5106042;28;20019;-67
2023/06/18 18:59:23;;;;;;;9.85;7.25;;;24.80;66.80;;;;;;5111265;28;20076;-66
2023/06/18 19:01:48;;;;;;;9.38;5.97;;;24.80;67.20;;;;;;5096837;28;20398;-62
2023/06/18 19:04:14;;;;;;;9.30;6.22;;;24.80;67.40;;;;;;5091884;28;20104;-68
2023/06/18 19:06:40;;;;;;;9.10;6.25;;;24.80;67.90;;;;;;5096569;28;20031;-62
2023/06/18 19:09:05;;;;;;;7.80;6.05;;;24.70;68.50;;;;;;5115405;28;20024;-67
2023/06/18 19:11:31;;;;;;;10.30;7.22;;;24.60;68.90;;;;;;5112752;28;20137;-66
2023/06/18 19:13:58;;;;;;;8.13;6.13;;;24.60;70.20;;;;;;5114715;28;20478;-61
2023/06/18 19:16:24;;;;;;;10.35;7.25;;;24.50;71.20;;;;;;5114476;28;20028;-63
2023/06/18 19:18:50;;;;;;;9.57;7.25;;;24.40;72.30;;;;;;5116187;28;20023;-62
2023/06/18 19:21:16;;;;;;;9.68;6.80;;;24.30;73.00;;;;;;5115547;28;20023;-61
2023/06/18 19:23:41;;;;;;;9.30;6.75;;;24.20;73.40;;;;;;5116401;28;20028;-64
2023/06/18 19:26:07;;;;;;;8.70;6.72;;;24.10;74.30;;;;;;5105919;28;20422;-69
2023/06/18 19:28:32;;;;;;;9.65;6.63;;;24.10;74.50;;;;;;5093891;28;20046;-63
2023/06/18 19:30:58;;;;;;;9.77;7.25;;;24.10;74.90;;;;;;5092964;28;20024;-65
2023/06/18 19:33:24;;;;;;;11.90;6.70;;;24.00;75.50;;;;;;5092968;28;20081;-62
2023/06/18 19:35:49;;;;;;;11.93;7.40;;;24.00;75.60;;;;;;5089126;28;20114;-63
2023/06/18 19:38:16;;;;;;;8.85;6.63;;;23.90;76.00;;;;;;5095721;28;20024;-68
2023/06/18 19:40:42;;;;;;;9.60;7.10;;;23.80;75.80;;;;;;5093293;28;20073;-64
2023/06/18 19:43:11;;;;;;;9.30;6.38;;;23.80;75.80;;;;;;5094377;28;20013;-64
2023/06/18 19:45:39;;;;;;;8.35;6.68;;;23.70;75.40;;;;;;5094451;28;20028;-60
2023/06/18 19:48:05;;;;;;;9.95;6.78;;;23.70;75.40;;;;;;5094082;28;20017;-60
2023/06/18 19:50:31;;;;;;;10.23;6.63;;;23.70;76.20;;;;;;5102305;28;20406;-61
2023/06/18 19:52:57;;;;;;;9.18;6.82;;;23.70;76.40;;;;;;5114813;28;20023;-60
2023/06/18 19:55:23;;;;;;;9.43;7.13;;;23.60;76.70;;;;;;5114093;28;20522;-61
2023/06/18 19:57:48;;;;;;;9.60;7.47;;;23.60;77.20;;;;;;5113856;28;20372;-61
2023/06/18 20:00:15;;;;;;;8.65;6.60;;;23.50;77.30;;;;;;5114009;28;20084;-61
2023/06/18 20:02:41;;;;;;;8.82;6.60;;;23.40;77.40;;;;;;5114148;28;20019;-63
2023/06/18 20:05:07;;;;;;;10.75;7.57;;;23.40;77.40;;;;;;5102678;28;20035;-67
2023/06/18 20:07:33;;;;;;;9.70;7.38;;;23.40;77.00;;;;;;5099876;28;20024;-62
2023/06/18 20:10:02;;;;;;;8.63;6.70;;;23.30;77.00;;;;;;5093599;28;20042;-61
2023/06/18 20:12:28;;;;;;;9.20;6.10;;;23.40;76.70;;;;;;5095125;28;20030;-69
2023/06/18 20:14:54;;;;;;;11.27;7.20;;;23.40;76.40;;;;;;5105836;28;20107;-67
2023/06/18 20:17:22;;;;;;;11.45;6.85;;;23.50;76.90;;;;;;5114770;28;20447;-68
2023/06/18 20:19:48;;;;;;;9.07;7.03;;;23.50;76.30;;;;;;5115567;28;20026;-67
2023/06/18 20:22:13;;;;;;;8.82;6.72;;;23.50;76.90;;;;;;5115420;28;20028;-68
2023/06/18 20:24:39;;;;;;;11.63;7.15;;;23.50;77.30;;;;;;5114820;28;20093;-67
2023/06/18 20:27:05;;;;;;;9.55;6.47;;;23.50;78.00;;;;;;5115419;28;20016;-64
2023/06/18 20:29:31;;;;;;;11.45;7.70;;;23.50;78.40;;;;;;5114435;28;20528;-63
2023/06/18 20:31:57;;;;;;;12.73;7.40;;;23.40;78.00;;;;;;5115370;28;20055;-66
2023/06/18 20:34:23;;;;;;;14.20;9.55;;;23.40;77.90;;;;;;5115189;28;20069;-67
2023/06/18 20:36:48;;;;;;;40.13;22.77;;;23.40;79.90;;;;;;5104042;28;20085;-65
2023/06/18 20:39:14;;;;;;;46.60;29.70;;;23.30;80.80;;;;;;5094702;28;20039;-62
2023/06/18 20:41:39;;;;;;;229.90;130.77;;;23.20;81.70;;;;;;5100990;28;20163;-65
2023/06/18 20:44:05;;;;;;;100.93;59.20;;;23.10;82.20;;;;;;5114181;28;20047;-67
2023/06/18 20:46:31;;;;;;;29.38;18.73;;;23.10;82.50;;;;;;5115251;28;20026;-63
2023/06/18 20:48:56;;;;;;;80.85;49.10;;;23.00;82.40;;;;;;5114625;28;20016;-61
